Time;durP1;ratioP1;P1;durP2;ratioP2;P2;SDS_P1;SDS_P2;PMS_P1;PMS_P2;Temp;Humidity;BMP_temperature;BMP_pressure;BME280_temperature;BME280_humidity;BME280_pressure;Samples;Min_cycle;Max_cycle;Signal;HPM_P1;HPM_P2
2022/01/20 00:02:37;;;;;;;39.42;18.77;;;;;;;0.74;57.68;100268.69;7720528;32;40981;-74
2022/01/20 00:34:20;;;;;;;33.63;19.48;;;;;;;0.89;55.57;100284.69;7738151;32;39367;-74
2022/01/20 00:38:39;;;;;;;43.80;20.42;;;;;;;0.65;56.14;100283.28;7725670;32;40040;-73
2022/01/20 00:42:55;;;;;;;41.42;21.17;;;;;;;0.87;55.38;100292.94;7737982;32;37681;-74
2022/01/20 00:47:12;;;;;;;40.83;21.33;;;;;;;0.72;55.38;100303.75;7738163;32;37793;-73
2022/01/20 00:51:28;;;;;;;41.17;20.33;;;;;;;0.14;57.23;100303.06;7724188;32;39402;-73
2022/01/20 00:55:45;;;;;;;40.53;22.00;;;;;;;0.26;57.11;100274.72;7737798;32;40029;-73
2022/01/20 01:00:07;;;;;;;43.87;20.67;;;;;;;0.16;58.51;100250.06;7724046;32;38701;-71
2022/01/20 01:04:25;;;;;;;39.17;19.58;;;;;;;0.55;58.42;100254.94;7737497;32;37302;-73
2022/01/20 01:08:41;;;;;;;40.35;20.23;;;;;;;0.49;58.81;100257.56;7737823;32;38784;-73
2022/01/20 01:13:05;;;;;;;41.60;20.27;;;;;;;0.51;58.70;100258.19;7737419;32;40754;-72
2022/01/20 01:21:51;;;;;;;44.53;21.45;;;;;;;0.73;58.95;100238.34;7737338;32;37492;-73
2022/01/20 01:26:14;;;;;;;42.30;21.75;;;;;;;0.65;59.88;100229.63;7737254;32;39416;-74
2022/01/20 01:30:51;;;;;;;37.97;20.55;;;;;;;0.21;60.94;100228.88;7737155;32;40816;-73
2022/01/20 01:35:09;;;;;;;40.95;21.77;;;;;;;0.27;60.53;100209.31;7729657;32;243248;-74
2022/01/20 01:39:25;;;;;;;40.00;21.70;;;;;;;0.43;60.21;100210.03;7737089;32;38172;-74
2022/01/20 01:43:45;;;;;;;43.53;21.40;;;;;;;0.75;59.46;100216.69;7736957;32;40122;-73
2022/01/20 01:48:03;;;;;;;41.22;21.58;;;;;;;0.60;59.74;100205.22;7736750;32;39998;-74
2022/01/20 01:52:20;;;;;;;42.22;21.77;;;;;;;0.92;59.03;100198.41;7736545;32;38686;-73
2022/01/20 01:56:36;;;;;;;47.60;22.30;;;;;;;0.69;59.60;100188.78;7736525;32;38052;-72
2022/01/20 02:00:52;;;;;;;39.83;19.52;;;;;;;0.88;59.16;100175.63;7736397;32;39450;-73
2022/01/20 02:05:12;;;;;;;36.65;20.95;;;;;;;0.83;59.43;100159.31;7736036;32;39956;-73
2022/01/20 02:18:50;;;;;;;53.92;21.90;;;;;;;0.23;61.17;100098.09;7736105;32;39569;-72
2022/01/20 02:23:06;;;;;;;48.03;22.13;;;;;;;0.03;61.04;100097.94;7735906;32;40048;-72
2022/01/20 02:27:23;;;;;;;36.85;20.00;;;;;;;0.27;60.12;100082.44;7735845;32;37922;-73
2022/01/20 02:31:40;;;;;;;43.75;20.70;;;;;;;0.46;59.14;100086.25;7735759;32;37303;-73
2022/01/20 02:36:08;;;;;;;41.67;20.85;;;;;;;0.40;58.62;100084.34;7735582;32;40239;-72
2022/01/20 02:44:48;;;;;;;32.25;19.23;;;;;;;0.21;58.79;100083.22;7738992;32;39965;-73
2022/01/20 02:45:03;;;;;;;35.10;20.15;;;;;;;0.42;58.24;100085.00;7739367;32;37975;-73
2022/01/20 02:49:20;;;;;;;42.20;18.80;;;;;;;0.19;57.96;100080.75;7739378;32;37944;-72
2022/01/20 02:53:36;;;;;;;42.33;20.08;;;;;;;0.35;56.99;100074.25;7739679;32;37828;-73
2022/01/20 02:57:52;;;;;;;38.03;18.65;;;;;;;-0.11;58.08;100067.53;7739110;32;40769;-72
2022/01/20 03:02:09;;;;;;;40.08;20.80;;;;;;;0.17;57.01;100061.34;7738954;32;38118;-72
2022/01/20 03:06:26;;;;;;;41.13;19.90;;;;;;;0.33;56.93;100065.56;7738780;32;37070;-72
2022/01/20 03:10:42;;;;;;;38.97;19.00;;;;;;;0.07;57.52;100076.94;7739260;32;39424;-74
2022/01/20 03:14:59;;;;;;;33.65;18.85;;;;;;;0.25;57.35;100058.50;7739098;32;39855;-72
2022/01/20 03:19:15;;;;;;;34.55;20.20;;;;;;;0.45;56.37;100047.03;7738926;32;38482;-73
2022/01/20 03:23:31;;;;;;;36.75;19.75;;;;;;;-0.03;57.52;100059.38;7725173;32;37958;-73
2022/01/20 03:27:48;;;;;;;35.83;19.95;;;;;;;-0.07;57.91;100049.22;7738786;32;39334;-71
2022/01/20 03:32:05;;;;;;;36.03;19.00;;;;;;;0.10;57.41;100033.66;7738847;32;40736;-73
2022/01/20 03:36:21;;;;;;;37.58;19.48;;;;;;;-0.29;58.09;100037.75;7738739;32;38445;-73
2022/01/20 03:40:38;;;;;;;43.87;18.85;;;;;;;-0.05;58.01;100041.84;7738789;32;38036;-73
2022/01/20 03:44:54;;;;;;;40.45;19.20;;;;;;;0.14;57.80;100032.25;7738714;32;39366;-70
2022/01/20 03:49:25;;;;;;;35.78;18.70;;;;;;;0.08;57.41;100028.50;7737571;32;40858;-73
2022/01/20 03:53:42;;;;;;;42.72;19.33;;;;;;;0.07;57.06;100024.16;7738610;32;38669;-73
2022/01/20 03:57:58;;;;;;;40.15;20.15;;;;;;;0.02;57.15;100036.50;7738638;32;37251;-71
2022/01/20 04:02:15;;;;;;;36.80;18.00;;;;;;;0.06;57.50;100016.31;7738373;32;39860;-73
2022/01/20 04:06:32;;;;;;;33.97;18.42;;;;;;;-0.07;57.89;100012.53;7738368;32;40756;-74
2022/01/20 04:10:48;;;;;;;43.45;21.00;;;;;;;-0.12;58.58;100004.25;7738310;32;38723;-72
2022/01/20 04:15:08;;;;;;;44.72;20.40;;;;;;;-0.41;59.35;99991.91;7738347;32;37563;-73
2022/01/20 04:19:30;;;;;;;35.60;18.40;;;;;;;-0.63;60.08;100009.84;7738356;32;39407;-72
2022/01/20 04:23:47;;;;;;;39.95;19.50;;;;;;;-0.43;58.94;99997.47;7725258;32;41214;-72
2022/01/20 04:28:03;;;;;;;42.13;21.23;;;;;;;-0.35;58.22;99995.66;7738125;32;38582;-72
2022/01/20 04:32:19;;;;;;;38.65;20.42;;;;;;;-0.50;60.08;100009.13;7738114;32;38073;-73
2022/01/20 04:36:39;;;;;;;42.95;21.05;;;;;;;-0.45;59.38;100004.88;7738079;32;40090;-73
2022/01/20 04:40:56;;;;;;;44.20;21.25;;;;;;;-0.44;59.85;100011.84;7724753;32;39882;-71
2022/01/20 04:45:20;;;;;;;40.78;20.98;;;;;;;-0.62;60.18;100015.03;7737879;32;38733;-73
2022/01/20 04:58:30;;;;;;;35.22;19.87;;;;;;;-0.66;59.96;100024.44;7737797;32;40412;-74
2022/01/20 05:02:47;;;;;;;35.20;18.87;;;;;;;-0.35;58.60;100017.09;7737119;32;37958;-71
2022/01/20 05:07:03;;;;;;;35.55;19.25;;;;;;;-0.25;58.34;100018.38;7737615;32;36924;-73
2022/01/20 05:11:20;;;;;;;36.70;19.45;;;;;;;-0.32;59.07;100011.34;7737611;32;40098;-71
2022/01/20 05:15:36;;;;;;;42.00;20.33;;;;;;;-0.54;61.10;100016.72;7737449;32;40745;-72
2022/01/20 05:19:52;;;;;;;36.25;18.77;;;;;;;-0.18;60.76;100015.75;7737359;32;38101;-73
2022/01/20 05:24:09;;;;;;;31.00;17.27;;;;;;;-0.08;61.92;100018.91;7737303;32;38353;-73
2022/01/20 05:28:25;;;;;;;31.90;18.42;;;;;;;-0.06;62.95;100008.81;7737183;32;39072;-73
2022/01/20 05:32:41;;;;;;;37.20;19.00;;;;;;;0.45;61.25;100004.13;7737123;32;39757;-73
2022/01/20 05:36:57;;;;;;;36.42;18.52;;;;;;;0.40;61.32;99995.84;7736828;32;38696;-72
2022/01/20 05:41:14;;;;;;;36.25;18.10;;;;;;;0.35;62.10;99994.59;7736932;32;37474;-71
2022/01/20 05:45:30;;;;;;;33.40;18.10;;;;;;;0.71;61.01;99988.13;7723083;32;40008;-72
2022/01/20 05:49:47;;;;;;;29.02;16.80;;;;;;;0.85;60.66;99972.06;7736781;32;40727;-72
2022/01/20 05:54:03;;;;;;;37.53;18.15;;;;;;;0.86;61.00;99974.53;7736591;32;38452;-73
2022/01/20 05:58:20;;;;;;;31.15;16.77;;;;;;;0.74;61.37;99977.00;7736591;32;37927;-70
2022/01/20 06:03:36;;;;;;;36.17;18.08;;;;;;;0.79;60.28;99978.22;7736311;32;40141;-72
2022/01/20 06:07:13;;;;;;;36.65;18.52;;;;;;;0.85;61.02;99980.13;7736157;32;40797;-73
2022/01/20 06:11:29;;;;;;;33.30;16.45;;;;;;;0.98;61.33;99963.19;7736204;32;37580;-73
2022/01/20 06:15:45;;;;;;;30.77;17.20;;;;;;;1.04;61.18;99963.19;7739635;32;36908;-73
2022/01/20 06:20:02;;;;;;;27.20;16.67;;;;;;;1.11;61.23;99949.78;7739626;32;40128;-72
2022/01/20 06:24:19;;;;;;;35.83;17.62;;;;;;;1.43;60.44;99940.06;7739772;32;39609;-73
2022/01/20 06:28:36;;;;;;;32.28;17.23;;;;;;;1.47;60.76;99943.97;7739538;32;37749;-73
2022/01/20 06:32:53;;;;;;;26.95;15.82;;;;;;;1.41;60.97;99943.97;7725834;32;37193;-73
2022/01/20 06:37:09;;;;;;;30.35;16.37;;;;;;;1.70;60.33;99937.31;7739555;32;39161;-73
2022/01/20 06:41:27;;;;;;;31.37;17.05;;;;;;;1.74;60.67;99943.94;7739536;32;40669;-72
2022/01/20 06:45:43;;;;;;;30.10;16.98;;;;;;;1.77;60.65;99945.38;7725716;32;37598;-73
2022/01/20 06:50:00;;;;;;;35.45;17.42;;;;;;;1.90;60.50;99947.19;7739329;32;38088;-73
2022/01/20 06:54:16;;;;;;;30.52;16.40;;;;;;;1.94;60.72;99935.81;7739405;32;39267;-71
2022/01/20 06:58:32;;;;;;;28.10;14.93;;;;;;;2.14;60.42;99927.69;7739195;32;39942;-72
2022/01/20 07:02:52;;;;;;;26.12;15.52;;;;;;;2.40;58.94;99909.78;7738856;32;37842;-70
2022/01/20 07:07:08;;;;;;;29.00;15.02;;;;;;;2.31;59.51;99905.66;7725479;32;37483;-72
2022/01/20 07:11:24;;;;;;;27.20;15.00;;;;;;;2.34;59.66;99914.12;7739086;32;39390;-72
2022/01/20 07:15:41;;;;;;;26.60;14.43;;;;;;;2.56;59.32;99913.81;7739389;32;38186;-73
2022/01/20 07:19:57;;;;;;;24.55;14.52;;;;;;;2.48;59.78;99906.00;7738907;32;38369;-72
2022/01/20 07:24:14;;;;;;;26.75;14.30;;;;;;;2.76;58.88;99898.38;7738886;32;36998;-73
2022/01/20 07:28:30;;;;;;;29.90;17.90;;;;;;;2.75;59.36;99895.91;7725049;32;39319;-72
2022/01/20 07:32:47;;;;;;;34.78;18.15;;;;;;;2.51;59.35;99894.81;7738744;32;40786;-72
2022/01/20 07:37:05;;;;;;;32.63;16.80;;;;;;;2.52;59.69;99902.66;7738660;32;38009;-73
2022/01/20 07:41:21;;;;;;;28.12;15.10;;;;;;;2.84;58.64;99899.97;7725178;32;37067;-73
2022/01/20 07:45:37;;;;;;;35.53;16.23;;;;;;;2.93;58.76;99901.37;7738597;32;40014;-73
2022/01/20 07:49:53;;;;;;;31.60;15.48;;;;;;;2.99;58.52;99903.16;7738587;32;40045;-72
2022/01/20 07:54:10;;;;;;;27.50;14.87;;;;;;;3.24;58.13;99909.59;7738162;32;38015;-74
2022/01/20 07:58:29;;;;;;;25.58;15.68;;;;;;;3.11;58.76;99919.44;7738627;32;37901;-74
2022/01/20 08:02:45;;;;;;;29.92;15.63;;;;;;;3.17;58.40;99912.34;7738390;32;39099;-75
2022/01/20 08:07:02;;;;;;;25.77;15.38;;;;;;;3.28;58.00;99908.94;7738269;32;40938;-72
2022/01/20 08:11:21;;;;;;;31.48;14.43;;;;;;;3.35;58.69;99901.63;7738392;32;37786;-74
2022/01/20 08:15:37;;;;;;;30.30;14.40;;;;;;;3.52;57.12;99906.47;7738444;32;36739;-73
2022/01/20 08:19:53;;;;;;;27.23;14.30;;;;;;;3.69;56.06;99909.37;7738397;32;39211;-74
2022/01/20 08:24:09;;;;;;;24.70;13.82;;;;;;;3.58;56.36;99897.47;7738274;32;40124;-74
2022/01/20 08:28:25;;;;;;;27.48;15.05;;;;;;;4.26;65.58;99901.87;7738001;32;38557;-74
2022/01/20 08:32:43;;;;;;;29.37;14.93;;;;;;;4.29;56.02;99905.97;7738184;32;37350;-74
2022/01/20 08:36:59;;;;;;;24.77;14.50;;;;;;;4.27;54.86;99905.38;7723857;32;39355;-74
2022/01/20 08:41:15;;;;;;;26.73;15.55;;;;;;;4.27;54.55;99913.47;7738058;32;40014;-73
2022/01/20 08:45:35;;;;;;;28.35;16.10;;;;;;;4.16;54.42;99911.53;7737954;32;37919;-74
2022/01/20 08:49:51;;;;;;;22.05;11.43;;;;;;;4.35;55.21;99912.34;7737898;32;37962;-74
2022/01/20 08:54:07;;;;;;;20.35;10.80;;;;;;;3.93;55.35;99929.22;7737882;32;39463;-74
2022/01/20 08:58:24;;;;;;;16.30;10.10;;;;;;;3.38;57.74;99917.34;7737855;32;40399;-73
2022/01/20 09:02:40;;;;;;;20.92;11.32;;;;;;;3.48;58.96;99926.78;7737543;32;38706;-74
2022/01/20 09:06:57;;;;;;;19.05;10.93;;;;;;;3.20;61.17;99920.00;7737667;32;38364;-72
2022/01/20 09:11:22;;;;;;;19.62;11.07;;;;;;;2.97;61.66;99934.88;7737626;32;39213;-73
2022/01/20 09:15:39;;;;;;;22.48;12.63;;;;;;;3.42;60.49;99942.00;7737560;32;40850;-74
2022/01/20 09:19:57;;;;;;;17.05;11.12;;;;;;;2.40;63.48;99942.88;7737270;32;38823;-75
2022/01/20 09:24:13;;;;;;;20.08;11.10;;;;;;;2.77;64.09;99936.88;7737168;32;37817;-73
2022/01/20 09:28:29;;;;;;;18.77;10.73;;;;;;;2.12;66.97;99928.94;7736770;32;39277;-72
2022/01/20 09:32:58;;;;;;;18.25;10.82;;;;;;;2.10;68.00;99939.91;7734423;32;40752;-73
2022/01/20 09:37:14;;;;;;;18.35;9.75;;;;;;;2.06;69.72;99927.94;7735131;32;38720;-72
2022/01/20 09:41:30;;;;;;;16.77;10.38;;;;;;;1.75;71.47;99929.47;7735960;32;37230;-73
2022/01/20 09:45:53;;;;;;;20.75;11.80;;;;;;;2.24;70.17;99914.63;7736785;32;40143;-71
2022/01/20 09:50:10;;;;;;;23.25;10.55;;;;;;;2.03;69.96;99926.47;7739528;32;39691;-73
2022/01/20 09:54:31;;;;;;;18.10;10.80;;;;;;;2.78;67.11;99923.22;7738461;32;38694;-73
2022/01/20 09:58:47;;;;;;;19.48;11.18;;;;;;;2.38;68.77;99917.22;7739684;32;37461;-73
2022/01/20 10:03:10;;;;;;;18.77;9.45;;;;;;;2.13;68.85;99915.28;7739707;32;40024;-72
2022/01/20 10:07:33;;;;;;;19.08;9.93;;;;;;;2.69;67.28;99907.53;7739506;32;40185;-73
2022/01/20 10:11:50;;;;;;;16.10;8.07;;;;;;;2.77;66.90;99904.56;7739848;32;37558;-74
2022/01/20 10:16:06;;;;;;;16.85;9.65;;;;;;;2.89;67.11;99904.72;7739771;32;37776;-72
2022/01/20 10:20:23;;;;;;;18.15;9.70;;;;;;;2.28;68.86;99900.72;7733581;32;40074;-72
2022/01/20 10:24:39;;;;;;;15.15;8.00;;;;;;;2.53;68.22;99890.84;7738897;32;40604;-72
2022/01/20 10:29:00;;;;;;;15.52;9.35;;;;;;;2.56;68.66;99879.66;7738198;32;37646;-73
2022/01/20 10:33:16;;;;;;;16.70;9.05;;;;;;;2.61;69.27;99863.69;7738514;32;37935;-71
2022/01/20 10:37:33;;;;;;;16.37;8.18;;;;;;;2.89;68.40;99842.78;7724971;32;39404;-73
2022/01/20 10:41:56;;;;;;;16.42;9.73;;;;;;;2.66;68.88;99819.13;7737898;32;39816;-74
2022/01/20 10:46:13;;;;;;;14.27;8.38;;;;;;;3.04;67.79;99808.25;7725350;32;38610;-72
2022/01/20 10:50:36;;;;;;;15.20;8.65;;;;;;;3.06;67.19;99811.53;7724297;32;37083;-73
2022/01/20 10:54:54;;;;;;;16.30;8.17;;;;;;;2.91;68.48;99808.34;7738702;32;39455;-72
2022/01/20 10:59:10;;;;;;;12.57;7.20;;;;;;;3.58;65.78;99792.31;7711783;32;40965;-72
2022/01/20 11:03:27;;;;;;;16.50;7.80;;;;;;;3.70;65.05;99801.28;7738147;32;37497;-72
2022/01/20 11:07:44;;;;;;;12.93;7.22;;;;;;;3.52;65.73;99777.06;7725074;32;37881;-74
2022/01/20 11:12:03;;;;;;;14.40;7.60;;;;;;;4.12;63.53;99782.50;7738107;32;39806;-73
2022/01/20 11:16:21;;;;;;;13.35;7.20;;;;;;;3.91;64.00;99770.31;7739036;32;42108;-74
2022/01/20 11:20:51;;;;;;;10.27;6.43;;;;;;;3.54;64.71;99772.28;7737743;32;38632;-73
2022/01/20 11:25:09;;;;;;;9.07;5.62;;;;;;;4.36;62.44;99765.53;7725067;32;37380;-72
2022/01/20 11:29:40;;;;;;;10.52;5.97;;;;;;;4.23;61.84;99761.19;7738438;32;40255;-72
2022/01/20 11:33:57;;;;;;;12.35;6.80;;;;;;;3.98;62.17;99754.03;7715139;32;41163;-72
2022/01/20 11:38:23;;;;;;;11.93;6.80;;;;;;;4.61;61.49;99735.66;7697863;32;37481;-73
2022/01/20 11:42:40;;;;;;;10.15;6.50;;;;;;;4.43;61.65;99737.41;7711221;32;37119;-74
2022/01/20 11:47:06;;;;;;;10.70;6.35;;;;;;;4.63;60.68;99720.03;7697620;32;40121;-73
2022/01/20 11:51:28;;;;;;;10.38;5.57;;;;;;;5.25;58.38;99690.59;7711079;32;39965;-73
2022/01/20 11:56:04;;;;;;;12.02;6.47;;;;;;;4.91;57.45;99686.09;7711257;32;38553;-74
2022/01/20 12:00:24;;;;;;;10.45;6.28;;;;;;;5.60;55.88;99696.94;7711255;32;37235;-74
2022/01/20 12:04:41;;;;;;;9.50;5.78;;;;;;;5.87;54.15;99693.66;7698481;32;40133;-73
2022/01/20 12:09:00;;;;;;;9.60;5.35;;;;;;;6.85;52.08;99650.00;7710735;32;39932;-74
2022/01/20 12:13:16;;;;;;;14.80;6.10;;;;;;;6.68;51.28;99640.03;7710201;32;37773;-74
2022/01/20 12:17:33;;;;;;;10.80;6.53;;;;;;;6.77;51.24;99643.13;7711263;32;37147;-74
2022/01/20 12:21:49;;;;;;;11.45;5.53;;;;;;;6.60;51.40;99658.59;7710636;32;39261;-74
2022/01/20 12:26:05;;;;;;;9.20;5.80;;;;;;;6.60;51.48;99650.47;7710400;32;39720;-74
2022/01/20 12:30:23;;;;;;;11.50;6.40;;;;;;;6.04;53.45;99653.09;7709789;32;37743;-74
2022/01/20 12:34:40;;;;;;;9.07;5.55;;;;;;;5.19;55.94;99648.31;7711286;32;36396;-74
2022/01/20 12:38:56;;;;;;;9.25;5.10;;;;;;;5.56;55.24;99629.00;7710285;32;39419;-73
2022/01/20 12:43:13;;;;;;;8.63;5.10;;;;;;;5.76;54.13;99623.12;7711614;32;41259;-75
2022/01/20 12:47:30;;;;;;;9.45;5.25;;;;;;;6.08;53.56;99624.50;7710079;32;37831;-74
2022/01/20 12:51:54;;;;;;;8.27;4.95;;;;;;;6.62;51.79;99599.56;7711231;32;38089;-80
2022/01/20 12:56:11;;;;;;;;;;;;;;;6.65;50.41;99605.28;7711573;32;40109;-75
2022/01/20 13:00:27;;;;;;;9.52;4.90;;;;;;;6.57;50.41;99600.31;7711354;32;40255;-75
2022/01/20 13:04:44;;;;;;;9.25;5.03;;;;;;;5.96;51.55;99611.84;7727233;32;37814;-73
2022/01/20 13:09:06;;;;;;;7.65;4.57;;;;;;;4.83;54.22;99593.56;7737779;32;37961;-74
2022/01/20 13:13:22;;;;;;;6.43;4.50;;;;;;;5.17;54.67;99577.44;7737857;32;39467;-74
2022/01/20 13:17:39;;;;;;;7.18;3.92;;;;;;;5.60;53.22;99586.88;7737703;32;40832;-74
2022/01/20 13:21:55;;;;;;;6.68;4.20;;;;;;;5.70;52.82;99597.06;7737368;32;37701;-74
2022/01/20 13:26:11;;;;;;;6.82;4.35;;;;;;;6.25;51.97;99573.06;7737574;32;38005;-74
2022/01/20 13:30:39;;;;;;;9.20;5.10;;;;;;;5.31;54.05;99569.06;7737284;32;40033;-75
2022/01/20 13:35:01;;;;;;;7.30;4.45;;;;;;;4.65;56.32;99566.69;7737511;32;40084;-74
2022/01/20 13:39:29;;;;;;;8.65;4.95;;;;;;;4.94;56.16;99577.56;7737243;32;37495;-73
2022/01/20 13:48:27;;;;;;;7.22;4.37;;;;;;;5.10;55.15;99549.75;7736977;32;40203;-73
2022/01/20 13:52:43;;;;;;;7.68;4.25;;;;;;;4.82;55.63;99562.19;7736794;32;40314;-73
2022/01/20 13:57:00;;;;;;;6.85;4.72;;;;;;;4.86;55.86;99528.25;7736677;32;38526;-73
2022/01/20 14:01:16;;;;;;;7.10;4.25;;;;;;;4.93;55.39;99541.59;7736802;32;37905;-71
2022/01/20 14:05:34;;;;;;;6.32;3.47;;;;;;;4.69;55.24;99544.37;7736444;32;39355;-73
2022/01/20 14:09:50;;;;;;;10.80;3.97;;;;;;;4.86;53.88;99511.19;7736391;32;40994;-70
2022/01/20 14:14:08;;;;;;;5.75;3.67;;;;;;;4.84;53.35;99497.94;7736220;32;38612;-71
2022/01/20 14:18:30;;;;;;;6.75;3.03;;;;;;;5.21;52.27;99497.53;7736323;32;36790;-74
2022/01/20 14:22:47;;;;;;;3.70;2.95;;;;;;;5.25;51.90;99500.56;7736197;32;40477;-75
2022/01/20 14:27:12;;;;;;;7.97;3.28;;;;;;;5.11;51.67;99524.38;7735906;32;40587;-72
2022/01/20 14:31:29;;;;;;;2.90;2.55;;;;;;;5.13;52.03;99526.84;7734920;32;38410;-72
2022/01/20 14:35:46;;;;;;;3.72;2.58;;;;;;;5.80;51.72;99550.44;7737707;32;37115;-74
2022/01/20 14:40:11;;;;;;;2.15;2.00;;;;;;;8.60;43.87;99512.06;7737092;32;39406;-73
2022/01/20 14:44:27;;;;;;;5.50;2.40;;;;;;;7.05;46.77;99503.88;7739434;32;39739;-73
2022/01/20 14:48:43;;;;;;;2.60;1.80;;;;;;;8.08;44.02;99472.12;7739171;32;37877;-73
2022/01/20 14:53:00;;;;;;;3.20;2.20;;;;;;;10.10;38.49;99472.22;7739335;32;36967;-73
2022/01/20 14:57:16;;;;;;;2.30;2.10;;;;;;;8.15;41.39;99478.16;7739312;32;40079;-72
2022/01/20 15:01:47;;;;;;;2.53;2.30;;;;;;;6.63;44.67;99474.72;7727011;32;39693;-76
2022/01/20 15:06:04;;;;;;;5.70;2.62;;;;;;;5.60;46.89;99540.91;7738622;32;38600;-72
2022/01/20 15:10:20;;;;;;;1.70;1.70;;;;;;;4.69;58.77;99622.69;7739144;32;37145;-71
2022/01/20 15:14:39;;;;;;;2.00;1.90;;;;;;;4.39;60.48;99679.50;7738986;32;39323;-72
2022/01/20 15:18:57;;;;;;;1.70;1.70;;;;;;;4.13;61.40;99696.97;7738739;32;39980;-71
2022/01/20 15:23:13;;;;;;;2.00;1.90;;;;;;;3.81;62.30;99686.47;7738810;32;37549;-74
2022/01/20 15:27:32;;;;;;;2.40;1.98;;;;;;;3.73;62.13;99682.19;7738908;32;37800;-73
2022/01/20 15:31:49;;;;;;;2.83;2.25;;;;;;;3.57;61.48;99672.09;7738748;32;38820;-73
2022/01/20 15:36:06;;;;;;;2.30;2.20;;;;;;;3.50;62.06;99687.50;7738580;32;39926;-72
2022/01/20 15:40:22;;;;;;;2.30;2.20;;;;;;;3.51;62.10;99686.47;7738450;32;38680;-71
2022/01/20 15:44:39;;;;;;;4.87;2.87;;;;;;;3.68;61.50;99690.16;7738497;32;37291;-73
2022/01/20 15:49:00;;;;;;;9.23;4.35;;;;;;;3.63;61.87;99708.91;7738517;32;39318;-72
2022/01/20 15:53:16;;;;;;;9.15;4.97;;;;;;;3.32;62.56;99707.22;7738610;32;39982;-70
2022/01/20 15:57:32;;;;;;;9.35;4.57;;;;;;;2.70;65.67;99718.87;7738522;32;37838;-70
2022/01/20 16:01:56;;;;;;;8.55;4.93;;;;;;;2.74;65.88;99711.16;7738374;32;37815;-70
2022/01/20 16:06:12;;;;;;;7.72;4.70;;;;;;;2.49;66.90;99725.47;7738192;32;40155;-71
2022/01/20 16:10:30;;;;;;;10.02;4.72;;;;;;;2.52;66.26;99734.97;7738205;32;40770;-71
2022/01/20 16:14:46;;;;;;;9.93;5.62;;;;;;;2.30;67.38;99726.47;7738114;32;38043;-71
2022/01/20 16:19:07;;;;;;;13.27;6.87;;;;;;;2.28;66.57;99744.69;7738150;32;37036;-71
2022/01/20 16:23:23;;;;;;;12.40;6.47;;;;;;;2.05;67.48;99738.00;7738109;32;40031;-71
2022/01/20 16:27:39;;;;;;;9.82;5.45;;;;;;;2.62;64.86;99751.44;7737846;32;40840;-71
2022/01/20 16:32:02;;;;;;;16.23;7.97;;;;;;;2.46;64.79;99744.75;7737952;32;38189;-70
2022/01/20 16:36:19;;;;;;;9.90;5.53;;;;;;;2.98;61.71;99734.56;7737976;32;36881;-70
2022/01/20 16:40:36;;;;;;;5.90;4.07;;;;;;;1.72;64.08;99770.47;7738193;32;39400;-71
2022/01/20 16:44:53;;;;;;;8.00;4.40;;;;;;;1.29;64.87;99775.41;7732130;32;40807;-70
2022/01/20 16:49:09;;;;;;;8.25;4.75;;;;;;;1.10;66.10;99779.78;7737240;32;37580;-71
2022/01/20 16:53:27;;;;;;;6.43;4.60;;;;;;;1.90;63.77;99785.88;7737582;32;36834;-71
2022/01/20 16:57:43;;;;;;;10.95;5.28;;;;;;;1.61;62.95;99790.78;7736295;32;39203;-71
2022/01/20 17:01:59;;;;;;;6.45;4.57;;;;;;;1.36;63.36;99815.66;7737748;32;39707;-71
2022/01/20 17:06:16;;;;;;;10.50;4.97;;;;;;;1.83;62.61;99819.03;7735914;32;37592;-72
2022/01/20 17:10:32;;;;;;;9.77;5.78;;;;;;;2.08;61.37;99812.88;7737635;32;38089;-70
2022/01/20 17:14:49;;;;;;;16.98;6.15;;;;;;;2.07;62.34;99803.19;7737030;32;39421;-70
2022/01/20 17:19:05;;;;;;;12.88;6.25;;;;;;;2.23;61.91;99794.59;7737410;32;39696;-71
2022/01/20 17:23:23;;;;;;;11.65;5.30;;;;;;;1.90;62.33;99821.69;7723345;32;37569;-72
2022/01/20 17:27:40;;;;;;;10.75;5.35;;;;;;;1.40;62.79;99808.84;7736672;32;37305;-72
2022/01/20 17:31:56;;;;;;;9.68;5.07;;;;;;;1.50;63.85;99836.09;7737361;32;39398;-70
2022/01/20 17:36:13;;;;;;;13.32;5.40;;;;;;;1.92;62.72;99848.34;7722616;32;39880;-71
2022/01/20 17:40:31;;;;;;;10.23;4.18;;;;;;;2.38;61.41;99855.34;7723439;32;37628;-72
2022/01/20 17:44:47;;;;;;;5.93;3.65;;;;;;;1.71;61.16;99866.41;7723141;32;37765;-71
2022/01/20 17:49:03;;;;;;;6.90;4.85;;;;;;;1.70;60.44;99867.44;7736533;32;39185;-71
2022/01/20 17:53:21;;;;;;;6.07;4.18;;;;;;;1.69;61.77;99882.75;7736642;32;40797;-73
2022/01/20 17:57:38;;;;;;;4.50;3.70;;;;;;;1.62;61.02;99894.53;7735841;32;36737;-72
2022/01/20 18:01:55;;;;;;;7.22;4.25;;;;;;;1.08;61.93;99888.44;7736705;32;38192;-71
2022/01/20 18:06:14;;;;;;;5.50;3.92;;;;;;;1.46;61.59;99891.28;7735827;32;39981;-72
2022/01/20 18:10:30;;;;;;;4.90;4.00;;;;;;;1.04;62.74;99900.63;7738307;32;40690;-71
2022/01/20 18:14:49;;;;;;;5.80;4.12;;;;;;;1.20;63.21;99918.19;7739348;32;37213;-71
2022/01/20 18:19:06;;;;;;;7.15;4.12;;;;;;;0.86;65.17;99903.91;7738166;32;37918;-69
2022/01/20 18:23:23;;;;;;;9.27;4.75;;;;;;;1.06;64.71;99915.47;7739603;32;40097;-70
2022/01/20 18:27:40;;;;;;;10.15;4.43;;;;;;;2.09;61.82;99913.22;7738688;32;39681;-71
2022/01/20 18:31:56;;;;;;;7.95;4.37;;;;;;;2.61;59.92;99897.84;7739427;32;38426;-70
2022/01/20 18:36:12;;;;;;;8.63;5.07;;;;;;;2.41;60.31;99879.13;7738768;32;38084;-72
2022/01/20 18:40:28;;;;;;;9.02;4.93;;;;;;;2.43;60.07;99877.88;7739019;32;39399;-71
2022/01/20 18:44:44;;;;;;;9.73;5.87;;;;;;;2.37;59.99;99902.13;7738705;32;40836;-71
2022/01/20 18:49:00;;;;;;;12.50;5.43;;;;;;;1.97;62.80;99931.91;7738602;32;38668;-71
2022/01/20 18:53:17;;;;;;;8.27;4.15;;;;;;;1.63;63.02;99942.72;7739313;32;37075;-71
2022/01/20 18:57:33;;;;;;;6.90;4.32;;;;;;;2.23;59.60;99942.53;7716347;32;40166;-72
2022/01/20 19:01:49;;;;;;;10.95;4.15;;;;;;;1.00;61.04;99945.00;7712140;32;42425;-70
2022/01/20 19:06:07;;;;;;;12.70;4.78;;;;;;;1.92;57.95;99945.97;7733307;32;38005;-68
2022/01/20 19:10:23;;;;;;;7.87;4.50;;;;;;;2.03;56.73;99950.66;7738620;32;37897;-71
2022/01/20 19:14:39;;;;;;;7.12;4.97;;;;;;;1.58;56.12;99955.13;7738166;32;39379;-70
2022/01/20 19:18:56;;;;;;;12.65;5.60;;;;;;;2.12;54.39;99956.69;7737967;32;39953;-70
2022/01/20 19:23:12;;;;;;;7.95;5.25;;;;;;;2.37;53.55;99980.16;7738815;32;38658;-70
2022/01/20 19:27:29;;;;;;;12.37;5.57;;;;;;;1.84;53.38;99986.50;7737937;32;38184;-69
2022/01/20 19:31:46;;;;;;;9.85;4.28;;;;;;;1.57;51.90;99986.56;7738309;32;39416;-71
2022/01/20 19:36:04;;;;;;;11.18;4.18;;;;;;;2.12;50.66;99991.63;7738166;32;40521;-70
2022/01/20 19:40:21;;;;;;;7.50;4.53;;;;;;;2.21;50.92;99986.84;7738116;32;38566;-70
2022/01/20 19:44:38;;;;;;;9.45;4.35;;;;;;;1.71;50.28;99994.59;7738131;32;37889;-70
2022/01/20 19:48:54;;;;;;;11.12;4.60;;;;;;;1.57;52.17;99999.16;7738202;32;39940;-69
2022/01/20 19:53:10;;;;;;;13.57;4.95;;;;;;;2.17;51.21;99989.12;7737954;32;40604;-69
2022/01/20 19:57:28;;;;;;;9.90;5.15;;;;;;;2.22;51.76;99993.87;7737550;32;36854;-69
2022/01/20 20:01:50;;;;;;;10.57;4.65;;;;;;;2.32;51.24;100004.19;7737615;32;38049;-71
2022/01/20 20:06:06;;;;;;;8.75;4.10;;;;;;;2.29;51.61;100004.62;7737374;32;39379;-70
2022/01/20 20:10:27;;;;;;;5.55;4.12;;;;;;;2.02;52.04;100010.06;7737296;32;40625;-71
2022/01/20 20:14:44;;;;;;;13.30;4.75;;;;;;;1.06;56.98;100022.88;7737654;32;38280;-70
2022/01/20 20:19:01;;;;;;;8.88;4.72;;;;;;;1.13;56.92;100029.09;7737521;32;37081;-69
2022/01/20 20:23:17;;;;;;;9.77;4.78;;;;;;;1.82;54.57;100028.91;7737451;32;40104;-70
2022/01/20 20:27:34;;;;;;;6.00;4.32;;;;;;;1.11;56.25;100027.66;7737328;32;39680;-70
2022/01/20 20:31:50;;;;;;;9.50;4.65;;;;;;;1.11;57.23;100020.41;7736467;32;36840;-69
2022/01/20 20:36:10;;;;;;;8.98;4.95;;;;;;;1.67;55.12;100021.06;7737142;32;37113;-70
2022/01/20 20:40:28;;;;;;;7.60;4.20;;;;;;;1.67;55.09;100013.00;7737156;32;39761;-71
2022/01/20 20:44:47;;;;;;;10.77;4.40;;;;;;;1.57;54.26;100001.84;7723541;32;39938;-70
2022/01/20 20:49:04;;;;;;;12.73;5.07;;;;;;;1.93;52.09;99987.94;7737295;32;37777;-71
2022/01/20 20:53:24;;;;;;;7.28;4.55;;;;;;;1.84;52.09;99999.97;7737238;32;37066;-71
2022/01/20 20:57:46;;;;;;;11.60;5.22;;;;;;;1.75;52.93;99993.16;7724189;32;40065;-69
2022/01/20 21:02:03;;;;;;;10.45;5.03;;;;;;;1.71;53.12;100008.03;7737954;32;39941;-70